createdAt,value
2017-10-02T11:56:27.100Z,1001.9
2017-10-02T11:57:29.867Z,1001.9
2017-10-02T11:58:32.296Z,1002
2017-10-02T11:59:34.882Z,1002
2017-10-02T12:00:37.573Z,1001.8
2017-10-02T12:01:40.022Z,1002
2017-10-02T12:02:42.458Z,1002
2017-10-02T12:03:45.274Z,1002
2017-10-02T12:04:48.052Z,1002
2017-10-02T12:05:50.508Z,1001.9
2017-10-02T12:06:52.995Z,1001.9
2017-10-02T12:07:55.425Z,1001.9
2017-10-02T12:08:57.873Z,1001.9
2017-10-02T12:10:00.310Z,1002
2017-10-02T12:11:03.154Z,1001.9
2017-10-02T12:12:05.586Z,1001.9
2017-10-02T12:13:08.024Z,1001.9
2017-10-02T12:14:10.815Z,1002
2017-10-02T12:15:13.243Z,1001.8
2017-10-02T12:16:15.672Z,1001.8
2017-10-02T12:17:18.107Z,1001.8
2017-10-02T12:18:20.548Z,1001.8
2017-10-02T12:19:23.189Z,1001.8
2017-10-02T12:20:25.631Z,1001.8
2017-10-02T12:21:28.104Z,1001.9
2017-10-02T12:22:30.536Z,1001.8
2017-10-02T12:23:33.181Z,1001.8
2017-10-02T12:24:35.609Z,1001.7
2017-10-02T12:25:38.046Z,1001.8
2017-10-02T12:26:40.529Z,1001.7
2017-10-02T12:27:42.958Z,1001.7
2017-10-02T12:28:45.446Z,1001.6
2017-10-02T12:29:47.874Z,1001.7
2017-10-02T12:30:50.411Z,1001.7
2017-10-02T12:31:53.264Z,1001.6
2017-10-02T12:32:55.685Z,1001.7
2017-10-02T12:33:58.146Z,1001.7
2017-10-02T12:35:00.634Z,1001.7
2017-10-02T12:36:03.071Z,1001.7
2017-10-02T12:37:05.504Z,1001.8
2017-10-02T12:38:07.933Z,1001.8
2017-10-02T12:39:10.370Z,1001.8
2017-10-02T12:40:13.163Z,1001.7
2017-10-02T12:41:15.594Z,1001.7
2017-10-02T12:42:18.034Z,1001.7
2017-10-02T12:43:20.474Z,1001.7
2017-10-02T12:44:22.923Z,1001.7
2017-10-02T12:45:26.076Z,1001.7
2017-10-02T12:46:28.514Z,1001.7
2017-10-02T12:47:31.042Z,1001.7
2017-10-02T12:48:33.519Z,1001.7
2017-10-02T12:49:35.970Z,1001.7
2017-10-02T12:50:38.759Z,1001.7
2017-10-02T12:51:41.189Z,1001.7
2017-10-02T12:52:43.970Z,1001.6
2017-10-02T12:53:46.399Z,1001.7
2017-10-02T12:54:49.195Z,1001.7
2017-10-02T12:55:51.634Z,1001.8
2017-10-02T12:56:54.060Z,1001.7
2017-10-02T12:57:56.498Z,1001.7
2017-10-02T12:58:59.296Z,1001.8
2017-10-02T13:00:01.732Z,1001.8
2017-10-02T13:01:04.548Z,1001.7
2017-10-02T13:02:07.410Z,1001.7
2017-10-02T13:03:10.215Z,1001.8
2017-10-02T13:04:12.663Z,1001.8
2017-10-02T13:05:15.267Z,1001.8
2017-10-02T13:06:17.727Z,1001.8
2017-10-02T13:07:20.248Z,1001.8
2017-10-02T13:08:22.686Z,1001.8
2017-10-02T13:09:25.119Z,1001.8
2017-10-02T13:10:27.574Z,1001.8
2017-10-02T13:11:30.003Z,1001.8
2017-10-02T13:12:32.438Z,1001.8
2017-10-02T13:13:34.935Z,1001.8
2017-10-02T13:14:37.369Z,1001.8
2017-10-02T13:15:40.244Z,1001.8
2017-10-02T13:16:42.683Z,1001.8
2017-10-02T13:17:45.460Z,1001.7
2017-10-02T13:18:47.901Z,1001.7
2017-10-02T13:19:50.353Z,1001.7
2017-10-02T13:20:52.838Z,1001.6
2017-10-02T13:21:55.278Z,1001.7
2017-10-02T13:22:57.713Z,1001.7
2017-10-02T13:24:00.149Z,1001.7
2017-10-02T13:25:02.698Z,1001.6
2017-10-02T13:26:05.126Z,1001.6
2017-10-02T13:27:07.624Z,1001.6
2017-10-02T13:28:10.072Z,1001.6
2017-10-02T13:29:12.496Z,1001.6
2017-10-02T13:30:14.954Z,1001.5
2017-10-02T13:31:17.558Z,1001.5
2017-10-02T13:32:20.956Z,1001.6
2017-10-02T13:33:24.190Z,1001.5
2017-10-02T13:34:26.971Z,1001.6
2017-10-02T13:35:29.425Z,1001.6
2017-10-02T13:36:31.867Z,1001.7
2017-10-02T13:37:34.302Z,1001.7
2017-10-02T13:38:36.940Z,1001.7
2017-10-02T13:39:39.378Z,1001.6
2017-10-02T13:40:41.820Z,1001.7
2017-10-02T13:41:44.254Z,1001.7
2017-10-02T13:42:46.713Z,1001.7
2017-10-02T13:43:49.297Z,1001.5
2017-10-02T13:44:51.780Z,1001.5
2017-10-02T13:45:54.214Z,1001.5
2017-10-02T13:46:56.661Z,1001.5
2017-10-02T13:47:59.145Z,1001.5
2017-10-02T13:49:01.585Z,1001.5
2017-10-02T13:50:04.535Z,1001.5
2017-10-02T13:51:06.973Z,1001.5
2017-10-02T13:52:09.413Z,1001.4
2017-10-02T13:53:11.867Z,1001.5
2017-10-02T13:54:14.307Z,1001.4
2017-10-02T13:55:16.830Z,1001.3
2017-10-02T13:56:19.266Z,1001.4
2017-10-02T13:57:21.710Z,1001.5
2017-10-02T13:58:24.140Z,1001.4
2017-10-02T13:59:26.576Z,1001.4
2017-10-02T14:00:29.071Z,1001.4
2017-10-02T14:01:31.522Z,1001.3
2017-10-02T14:02:33.996Z,1001.4
2017-10-02T14:03:36.439Z,1001.4
2017-10-02T14:04:38.872Z,1001.3
2017-10-02T14:05:41.454Z,1001.3
2017-10-02T14:06:43.881Z,1001.3
2017-10-02T14:07:46.324Z,1001.3
2017-10-02T14:08:48.744Z,1001.3
2017-10-02T14:09:51.258Z,1001.3
2017-10-02T14:10:53.688Z,1001.4
2017-10-02T14:11:56.289Z,1001.4
2017-10-02T14:12:58.738Z,1001.4
2017-10-02T14:14:01.171Z,1001.3
2017-10-02T14:15:03.627Z,1001.3
2017-10-02T14:16:06.073Z,1001.2
2017-10-02T14:17:08.560Z,1001.3
2017-10-02T14:18:11.008Z,1001.4
2017-10-02T14:19:13.445Z,1001.4
2017-10-02T14:20:15.867Z,1001.4
2017-10-02T14:21:18.319Z,1001.4
2017-10-02T14:22:20.839Z,1001.3
2017-10-02T14:23:23.276Z,1001.2
2017-10-02T14:24:26.091Z,1001.3
2017-10-02T14:25:28.533Z,1001.3
2017-10-02T14:26:31.661Z,1001.3
2017-10-02T14:27:34.082Z,1001.3
2017-10-02T14:28:36.906Z,1001.3
2017-10-02T14:29:39.495Z,1001.2
2017-10-02T14:30:41.938Z,1001.2
2017-10-02T14:31:44.384Z,1001.2
2017-10-02T14:32:46.825Z,1001.2
2017-10-02T14:33:49.348Z,1001.1
2017-10-02T14:34:51.798Z,1001.2
2017-10-02T14:35:54.240Z,1001.2
2017-10-02T14:36:56.674Z,1001.2
2017-10-02T14:37:59.199Z,1001.2
2017-10-02T14:39:01.631Z,1001.1
2017-10-02T14:40:04.407Z,1001.2
2017-10-02T14:41:07.202Z,1001.1
2017-10-02T14:42:09.645Z,1001.1
2017-10-02T14:43:12.433Z,1001
2017-10-02T14:44:14.868Z,1001.2
2017-10-02T14:45:17.295Z,1001.2
2017-10-02T14:46:19.741Z,1001.3
2017-10-02T14:47:22.190Z,1001.2
2017-10-02T14:48:24.976Z,1001.3
2017-10-02T14:49:27.412Z,1001.4
2017-10-02T14:50:30.954Z,1001.4
2017-10-02T14:51:33.406Z,1001.3
2017-10-02T14:52:35.846Z,1001.3
2017-10-02T14:53:38.293Z,1001.4
2017-10-02T14:54:40.827Z,1001.4
2017-10-02T14:55:43.264Z,1001.4
2017-10-02T14:56:45.700Z,1001.4
2017-10-02T14:57:48.143Z,1001.3
2017-10-02T14:58:50.664Z,1001.2
2017-10-02T14:59:53.094Z,1001.1
2017-10-02T15:00:55.547Z,1001
2017-10-02T15:01:57.992Z,1001
2017-10-02T15:03:00.430Z,1001.1
2017-10-02T15:04:03.223Z,1001
2017-10-02T15:05:05.646Z,1001
2017-10-02T15:06:08.081Z,1001.1
2017-10-02T15:07:10.522Z,1001.2
2017-10-02T15:08:12.946Z,1001.2
2017-10-02T15:09:15.385Z,1001.3
2017-10-02T15:10:17.839Z,1001.3
2017-10-02T15:11:20.268Z,1001.3
2017-10-02T15:12:23.060Z,1001.4
2017-10-02T15:13:25.604Z,1001.4
2017-10-02T15:14:28.040Z,1001.4
2017-10-02T15:15:30.484Z,1001.4
2017-10-02T15:16:33.097Z,1001.4
2017-10-02T15:17:35.538Z,1001.5
2017-10-02T15:18:37.986Z,1001.5
2017-10-02T15:19:41.164Z,1001.5
2017-10-02T15:20:43.580Z,1001.5
2017-10-02T15:21:46.018Z,1001.4
2017-10-02T15:22:48.451Z,1001.4
2017-10-02T15:23:50.880Z,1001.2
2017-10-02T15:24:53.332Z,1001.1
2017-10-02T15:25:55.761Z,1001
2017-10-02T15:26:58.191Z,1001
2017-10-02T15:28:00.651Z,1001.1
2017-10-02T15:29:03.080Z,1001.2
2017-10-02T15:30:05.518Z,1001.2
2017-10-02T15:31:07.966Z,1001.2
2017-10-02T15:32:10.391Z,1001.3
2017-10-02T15:33:12.830Z,1001.4
2017-10-02T15:34:15.262Z,1001.4
2017-10-02T15:35:17.697Z,1001.5
2017-10-02T15:36:20.125Z,1001.6
2017-10-02T15:37:22.558Z,1001.6
2017-10-02T15:38:24.993Z,1001.6
2017-10-02T15:39:27.438Z,1001.5
2017-10-02T15:40:29.862Z,1001.4
2017-10-02T15:41:32.660Z,1001.4
2017-10-02T15:42:35.281Z,1001.4
2017-10-02T15:43:37.743Z,1001.6
2017-10-02T15:44:40.178Z,1001.7
2017-10-02T15:45:42.951Z,1001.7
2017-10-02T15:46:46.072Z,1001.7
2017-10-02T15:47:48.537Z,1001.6
2017-10-02T15:48:50.951Z,1001.6
2017-10-02T15:49:53.381Z,1001.6
2017-10-02T15:50:55.805Z,1001.5
2017-10-02T15:51:58.238Z,1001.5
2017-10-02T15:53:00.693Z,1001.5
2017-10-02T15:54:03.483Z,1001.4
2017-10-02T15:55:05.918Z,1001.4
2017-10-02T15:56:08.692Z,1001.4
2017-10-02T15:57:11.125Z,1001.4
2017-10-02T15:58:13.566Z,1001.4
2017-10-02T15:59:15.994Z,1001.3
2017-10-02T16:00:18.776Z,1001.3
2017-10-02T16:01:21.207Z,1001.2
2017-10-02T16:02:23.648Z,1001.2
2017-10-02T16:03:26.426Z,1001.2
2017-10-02T16:04:28.861Z,1001.3
2017-10-02T16:05:31.300Z,1001.2
2017-10-02T16:06:34.079Z,1001.1
2017-10-02T16:07:36.524Z,1001.1
2017-10-02T16:08:38.949Z,1001.1
2017-10-02T16:09:41.400Z,1001.2
2017-10-02T16:10:44.177Z,1001.2
2017-10-02T16:11:46.611Z,1001.2
2017-10-02T16:12:49.048Z,1001.1
2017-10-02T16:13:51.493Z,1001
2017-10-02T16:14:53.931Z,1001
2017-10-02T16:15:56.368Z,1001.1
2017-10-02T16:16:58.791Z,1001.1
2017-10-02T16:18:01.220Z,1001
2017-10-02T16:19:03.657Z,1001.1
2017-10-02T16:20:06.092Z,1001.2
2017-10-02T16:21:08.861Z,1001.3
2017-10-02T16:22:11.301Z,1001.4
2017-10-02T16:23:13.742Z,1001.4
2017-10-02T16:24:16.166Z,1001.5
2017-10-02T16:25:18.603Z,1001.5
2017-10-02T16:26:21.047Z,1001.5
2017-10-02T16:27:23.478Z,1001.5
2017-10-02T16:28:25.905Z,1001.4
2017-10-02T16:29:28.342Z,1001.5
2017-10-02T16:30:30.764Z,1001.4
2017-10-02T16:31:33.217Z,1001.4
2017-10-02T16:32:35.654Z,1001.4
2017-10-02T16:33:38.079Z,1001.4
2017-10-02T16:34:40.525Z,1001.4
2017-10-02T16:35:42.960Z,1001.4
2017-10-02T16:36:45.392Z,1001.4
2017-10-02T16:37:48.165Z,1001.4
2017-10-02T16:38:50.602Z,1001.4
2017-10-02T16:39:53.036Z,1001.5
2017-10-02T16:40:55.829Z,1001.6
2017-10-02T16:41:58.262Z,1001.6
2017-10-02T16:43:00.698Z,1001.6
2017-10-02T16:44:03.124Z,1001.6
2017-10-02T16:45:05.562Z,1001.5
2017-10-02T16:46:08.004Z,1001.6
2017-10-02T16:47:10.435Z,1001.6
2017-10-02T16:48:12.868Z,1001.5
2017-10-02T16:49:15.645Z,1001.6
2017-10-02T16:50:18.074Z,1001.7
2017-10-02T16:51:20.520Z,1001.6
2017-10-02T16:52:22.949Z,1001.6
2017-10-02T16:53:25.382Z,1001.5
2017-10-02T16:54:27.821Z,1001.5
2017-10-02T16:55:30.250Z,1001.4
2017-10-02T16:56:32.679Z,1001.4
2017-10-02T16:57:35.458Z,1001.3
2017-10-02T16:58:37.889Z,1001.2
2017-10-02T16:59:40.315Z,1001.2
2017-10-02T17:00:43.114Z,1001.2
2017-10-02T17:01:45.553Z,1001.2
2017-10-02T17:02:47.986Z,1001.3
2017-10-02T17:03:50.433Z,1001.4
2017-10-02T17:04:52.851Z,1001.4
2017-10-02T17:05:55.645Z,1001.5
2017-10-02T17:06:58.468Z,1001.5
2017-10-02T17:08:00.887Z,1001.6
2017-10-02T17:09:03.336Z,1001.6
2017-10-02T17:10:06.103Z,1001.7
2017-10-02T17:11:08.897Z,1001.6
2017-10-02T17:12:11.334Z,1001.6
2017-10-02T17:13:13.769Z,1001.6
2017-10-02T17:14:16.198Z,1001.5
2017-10-02T17:15:18.640Z,1001.4
2017-10-02T17:16:21.061Z,1001.5
2017-10-02T17:17:23.504Z,1001.4
2017-10-02T17:18:25.944Z,1001.4
2017-10-02T17:19:28.365Z,1001.4
2017-10-02T17:20:31.155Z,1001.4
2017-10-02T17:21:33.936Z,1001.4
2017-10-02T17:22:36.367Z,1001.4
2017-10-02T17:23:38.806Z,1001.4
2017-10-02T17:24:41.236Z,1001.3
2017-10-02T17:25:43.669Z,1001.4
2017-10-02T17:26:46.097Z,1001.4
2017-10-02T17:27:48.523Z,1001.4
2017-10-02T17:28:50.966Z,1001.5
2017-10-02T17:29:53.396Z,1001.5
2017-10-02T17:30:55.834Z,1001.5
2017-10-02T17:31:58.274Z,1001.5
2017-10-02T17:33:01.073Z,1001.5
2017-10-02T17:34:03.511Z,1001.6
2017-10-02T17:35:05.939Z,1001.6
2017-10-02T17:36:08.371Z,1001.7
2017-10-02T17:37:10.807Z,1001.7
2017-10-02T17:38:13.238Z,1001.7
2017-10-02T17:39:15.672Z,1001.6
2017-10-02T17:40:18.128Z,1001.7
2017-10-02T17:41:20.562Z,1001.6
2017-10-02T17:42:22.986Z,1001.6
2017-10-02T17:43:25.426Z,1001.7
2017-10-02T17:44:27.855Z,1001.5
2017-10-02T17:45:30.295Z,1001.5
2017-10-02T17:46:32.732Z,1001.5
2017-10-02T17:47:35.158Z,1001.5
2017-10-02T17:48:37.593Z,1001.6
2017-10-02T17:49:40.035Z,1001.6
2017-10-02T17:50:42.472Z,1001.6
2017-10-02T17:51:44.901Z,1001.7
2017-10-02T17:52:47.677Z,1001.7
2017-10-02T17:53:50.109Z,1001.7
2017-10-02T17:54:52.538Z,1001.7
2017-10-02T17:55:54.975Z,1001.7
2017-10-02T17:56:57.396Z,1001.8
2017-10-02T17:57:59.840Z,1001.8
2017-10-02T17:59:02.275Z,1001.8
2017-10-02T18:00:04.711Z,1001.8
2017-10-02T18:01:07.142Z,1001.8
2017-10-02T18:02:09.567Z,1001.7
2017-10-02T18:03:11.994Z,1001.7
2017-10-02T18:04:14.427Z,1001.7
2017-10-02T18:05:16.851Z,1001.6
2017-10-02T18:06:19.283Z,1001.6
2017-10-02T18:07:21.721Z,1001.7
2017-10-02T18:08:24.157Z,1001.6
2017-10-02T18:09:26.590Z,1001.5
2017-10-02T18:10:29.051Z,1001.5
2017-10-02T18:11:31.472Z,1001.5
2017-10-02T18:12:33.911Z,1001.5
2017-10-02T18:13:36.336Z,1001.5
2017-10-02T18:14:38.775Z,1001.6
2017-10-02T18:15:41.207Z,1001.5
2017-10-02T18:16:43.639Z,1001.5
2017-10-02T18:17:46.075Z,1001.5
2017-10-02T18:18:48.515Z,1001.6
2017-10-02T18:19:50.942Z,1001.7
2017-10-02T18:20:53.370Z,1001.7
2017-10-02T18:21:55.790Z,1001.7
2017-10-02T18:22:58.239Z,1001.7
2017-10-02T18:24:00.674Z,1001.7
2017-10-02T18:25:03.111Z,1001.7
2017-10-02T18:26:05.545Z,1001.7
2017-10-02T18:27:07.987Z,1001.7
2017-10-02T18:28:10.765Z,1001.7
2017-10-02T18:29:13.204Z,1001.7
2017-10-02T18:30:15.624Z,1001.7
2017-10-02T18:31:18.049Z,1001.7
2017-10-02T18:32:20.489Z,1001.7
2017-10-02T18:33:22.926Z,1001.7
2017-10-02T18:34:25.354Z,1001.7
2017-10-02T18:35:27.831Z,1001.7
2017-10-02T18:36:30.278Z,1001.7
2017-10-02T18:37:32.726Z,1001.7
2017-10-02T18:38:35.157Z,1001.6
2017-10-02T18:39:37.588Z,1001.7
2017-10-02T18:40:40.023Z,1001.7
2017-10-02T18:41:42.463Z,1001.7
2017-10-02T18:42:44.893Z,1001.6
2017-10-02T18:43:47.368Z,1001.7
2017-10-02T18:44:49.783Z,1001.7
2017-10-02T18:45:52.219Z,1001.7
2017-10-02T18:46:54.665Z,1001.7
2017-10-02T18:47:57.441Z,1001.8
2017-10-02T18:48:59.873Z,1001.8
2017-10-02T18:50:02.311Z,1001.8
2017-10-02T18:51:04.742Z,1001.7
2017-10-02T18:52:07.178Z,1001.6
2017-10-02T18:53:09.613Z,1001.5
2017-10-02T18:54:12.047Z,1001.5
2017-10-02T18:55:14.853Z,1001.5
2017-10-02T18:56:17.270Z,1001.5
2017-10-02T18:57:19.702Z,1001.5
2017-10-02T18:58:22.139Z,1001.4
2017-10-02T18:59:24.582Z,1001.4
2017-10-02T19:00:27.003Z,1001.5
2017-10-02T19:01:29.437Z,1001.4
2017-10-02T19:02:31.869Z,1001.5
2017-10-02T19:03:34.315Z,1001.5
2017-10-02T19:04:36.754Z,1001.5
2017-10-02T19:05:39.183Z,1001.6
2017-10-02T19:06:41.618Z,1001.6
2017-10-02T19:07:44.048Z,1001.7
2017-10-02T19:08:46.491Z,1001.6
2017-10-02T19:09:48.929Z,1001.6
2017-10-02T19:10:51.360Z,1001.5
2017-10-02T19:11:53.800Z,1001.5
2017-10-02T19:12:56.240Z,1001.6
2017-10-02T19:13:58.676Z,1001.6
2017-10-02T19:15:01.106Z,1001.6
2017-10-02T19:16:03.539Z,1001.5
2017-10-02T19:17:05.962Z,1001.5
2017-10-02T19:18:08.417Z,1001.5
2017-10-02T19:19:10.849Z,1001.5
2017-10-02T19:20:13.278Z,1001.5
2017-10-02T19:21:15.721Z,1001.6
2017-10-02T19:22:18.498Z,1001.5
2017-10-02T19:23:20.938Z,1001.5
2017-10-02T19:24:23.367Z,1001.6
2017-10-02T19:25:25.803Z,1001.6
2017-10-02T19:26:28.582Z,1001.6
2017-10-02T19:27:31.002Z,1001.5
2017-10-02T19:28:33.439Z,1001.6
2017-10-02T19:29:35.884Z,1001.6
2017-10-02T19:30:38.655Z,1001.7
2017-10-02T19:31:41.097Z,1001.7
2017-10-02T19:32:43.526Z,1001.6
2017-10-02T19:33:45.967Z,1001.7
2017-10-02T19:34:48.410Z,1001.7
2017-10-02T19:35:50.845Z,1001.8
2017-10-02T19:36:53.273Z,1001.8
2017-10-02T19:37:55.710Z,1001.7
2017-10-02T19:38:58.141Z,1001.7
2017-10-02T19:40:00.580Z,1001.6
2017-10-02T19:41:03.022Z,1001.5
2017-10-02T19:42:05.446Z,1001.5
2017-10-02T19:43:07.882Z,1001.5
2017-10-02T19:44:10.313Z,1001.4
2017-10-02T19:45:12.738Z,1001.4
2017-10-02T19:46:15.177Z,1001.4
2017-10-02T19:47:17.608Z,1001.4
2017-10-02T19:48:20.047Z,1001.4
2017-10-02T19:49:22.486Z,1001.5
2017-10-02T19:50:24.918Z,1001.6
2017-10-02T19:51:27.357Z,1001.7
2017-10-02T19:52:30.134Z,1001.7
2017-10-02T19:53:32.558Z,1001.7
2017-10-02T19:54:34.990Z,1001.7
2017-10-02T19:55:37.427Z,1001.7
2017-10-02T19:56:39.861Z,1001.7
2017-10-02T19:57:42.284Z,1001.7
2017-10-02T19:58:44.720Z,1001.6
2017-10-02T19:59:47.153Z,1001.6
2017-10-02T20:00:49.603Z,1001.6
2017-10-02T20:01:52.035Z,1001.6
2017-10-02T20:02:54.468Z,1001.5
2017-10-02T20:03:56.901Z,1001.5
2017-10-02T20:04:59.338Z,1001.4
2017-10-02T20:06:01.781Z,1001.4
2017-10-02T20:07:04.238Z,1001.5
2017-10-02T20:08:06.657Z,1001.5
2017-10-02T20:09:09.096Z,1001.6
2017-10-02T20:10:11.535Z,1001.6
2017-10-02T20:11:13.965Z,1001.6
2017-10-02T20:12:16.402Z,1001.6
2017-10-02T20:13:18.844Z,1001.7
2017-10-02T20:14:21.277Z,1001.8
2017-10-02T20:15:24.424Z,1001.8
2017-10-02T20:16:27.189Z,1001.8
2017-10-02T20:17:29.630Z,1001.7
2017-10-02T20:18:32.059Z,1001.6
2017-10-02T20:19:34.500Z,1001.6
2017-10-02T20:20:36.932Z,1001.6
2017-10-02T20:21:39.358Z,1001.6
2017-10-02T20:22:41.799Z,1001.5
2017-10-02T20:23:44.228Z,1001.5
2017-10-02T20:24:46.657Z,1001.5
2017-10-02T20:25:49.093Z,1001.5
2017-10-02T20:26:51.522Z,1001.4
2017-10-02T20:27:53.951Z,1001.3
2017-10-02T20:28:56.395Z,1001.3
2017-10-02T20:29:58.823Z,1001.3
2017-10-02T20:31:01.269Z,1001.4
2017-10-02T20:32:03.711Z,1001.4
2017-10-02T20:33:06.145Z,1001.4
2017-10-02T20:34:08.574Z,1001.4
2017-10-02T20:35:11.016Z,1001.5
2017-10-02T20:36:13.447Z,1001.5
2017-10-02T20:37:15.891Z,1001.5
2017-10-02T20:38:18.663Z,1001.5
2017-10-02T20:39:21.096Z,1001.5
2017-10-02T20:40:23.528Z,1001.5
2017-10-02T20:41:25.963Z,1001.5
2017-10-02T20:42:28.386Z,1001.6
2017-10-02T20:43:30.842Z,1001.6
2017-10-02T20:44:33.257Z,1001.6
2017-10-02T20:45:35.700Z,1001.5
2017-10-02T20:46:38.474Z,1001.5
2017-10-02T20:47:41.240Z,1001.5
2017-10-02T20:48:43.666Z,1001.6
2017-10-02T20:49:46.098Z,1001.5
2017-10-02T20:50:48.525Z,1001.5
2017-10-02T20:51:50.950Z,1001.5
2017-10-02T20:52:53.373Z,1001.4
2017-10-02T20:53:55.811Z,1001.4
2017-10-02T20:54:58.257Z,1001.5
2017-10-02T20:56:00.691Z,1001.4
2017-10-02T20:57:03.129Z,1001.4
2017-10-02T20:58:06.253Z,1001.4
2017-10-02T20:59:08.689Z,1001.4
2017-10-02T21:00:11.141Z,1001.4
2017-10-02T21:01:13.573Z,1001.3
2017-10-02T21:02:16.331Z,1001.4
2017-10-02T21:03:18.773Z,1001.4
2017-10-02T21:04:21.206Z,1001.3
2017-10-02T21:05:23.999Z,1001.3
2017-10-02T21:06:26.438Z,1001.2
2017-10-02T21:07:28.855Z,1001.2
2017-10-02T21:08:31.291Z,1001.3
2017-10-02T21:09:34.065Z,1001.2
2017-10-02T21:10:36.489Z,1001.2
2017-10-02T21:11:38.928Z,1001.1
2017-10-02T21:12:41.363Z,1001.1
2017-10-02T21:13:43.794Z,1001.1
2017-10-02T21:14:46.241Z,1001
2017-10-02T21:15:48.678Z,1001
2017-10-02T21:16:51.105Z,1001
2017-10-02T21:17:53.537Z,1001
2017-10-02T21:18:55.970Z,1001
2017-10-02T21:19:58.403Z,1001
2017-10-02T21:21:00.836Z,1001.1
2017-10-02T21:22:03.280Z,1001.1
2017-10-02T21:23:05.728Z,1001.1
2017-10-02T21:24:08.162Z,1001
2017-10-02T21:25:10.596Z,1001
2017-10-02T21:26:13.040Z,1001
2017-10-02T21:27:15.461Z,1001.1
2017-10-02T21:28:17.896Z,1001
2017-10-02T21:29:20.332Z,1001
2017-10-02T21:30:22.758Z,1001.1
2017-10-02T21:31:25.189Z,1001.2
2017-10-02T21:32:27.629Z,1001.3
2017-10-02T21:33:30.045Z,1001.3
2017-10-02T21:34:32.488Z,1001.4
2017-10-02T21:35:34.925Z,1001.3
2017-10-02T21:36:37.355Z,1001.3
2017-10-02T21:37:39.789Z,1001.3
2017-10-02T21:38:42.219Z,1001.3
2017-10-02T21:39:44.646Z,1001.3
2017-10-02T21:40:47.092Z,1001.2
2017-10-02T21:41:49.521Z,1001.1
2017-10-02T21:42:51.956Z,1001.1
2017-10-02T21:43:54.383Z,1001
2017-10-02T21:44:56.816Z,1001
2017-10-02T21:45:59.251Z,1001.1
2017-10-02T21:47:01.686Z,1001.1
2017-10-02T21:48:04.445Z,1001.1
2017-10-02T21:49:06.884Z,1001.1
2017-10-02T21:50:09.314Z,1001.1
2017-10-02T21:51:11.756Z,1001
2017-10-02T21:52:14.189Z,1001
2017-10-02T21:53:16.627Z,1001.1
2017-10-02T21:54:19.063Z,1001.1
2017-10-02T21:55:21.482Z,1001.1
2017-10-02T21:56:23.920Z,1001.2
2017-10-02T21:57:26.347Z,1001.1
2017-10-02T21:58:28.772Z,1001.1
2017-10-02T21:59:31.203Z,1001.1
2017-10-02T22:00:33.629Z,1001.1
2017-10-02T22:01:36.068Z,1001.1
2017-10-02T22:02:38.505Z,1001.1
2017-10-02T22:03:40.938Z,1001.1
2017-10-02T22:04:43.371Z,1001
2017-10-02T22:05:45.809Z,1001.1
2017-10-02T22:06:48.229Z,1001.1
2017-10-02T22:07:50.662Z,1001.1
2017-10-02T22:08:53.105Z,1001.2
2017-10-02T22:09:55.532Z,1001.1
2017-10-02T22:10:58.312Z,1001.1
2017-10-02T22:12:00.741Z,1001
2017-10-02T22:13:03.164Z,1001
2017-10-02T22:14:05.597Z,1001
2017-10-02T22:15:08.031Z,1001
2017-10-02T22:16:10.455Z,1001.1
2017-10-02T22:17:12.892Z,1001.1
2017-10-02T22:18:15.328Z,1001.2
2017-10-02T22:19:17.763Z,1001.2
2017-10-02T22:20:20.204Z,1001.2
2017-10-02T22:21:22.638Z,1001.1
2017-10-02T22:22:25.426Z,1001.1
2017-10-02T22:23:27.857Z,1001.2
2017-10-02T22:24:30.634Z,1001.1
2017-10-02T22:25:33.062Z,1001.1
2017-10-02T22:26:35.493Z,1001.1
2017-10-02T22:27:37.919Z,1001.1
2017-10-02T22:28:40.357Z,1001
2017-10-02T22:29:42.781Z,1001.1
2017-10-02T22:30:45.229Z,1001.1
2017-10-02T22:31:47.665Z,1001.1
2017-10-02T22:32:50.096Z,1001.1
2017-10-02T22:33:52.528Z,1001.2
2017-10-02T22:34:54.964Z,1001.2
2017-10-02T22:35:57.392Z,1001.1
2017-10-02T22:36:59.831Z,1001.1
2017-10-02T22:38:02.262Z,1001
2017-10-02T22:39:04.690Z,1001
2017-10-02T22:40:07.136Z,1001
2017-10-02T22:41:09.555Z,1001.1
2017-10-02T22:42:11.995Z,1001.1
2017-10-02T22:43:14.431Z,1001.1
2017-10-02T22:44:16.859Z,1001.1
2017-10-02T22:45:19.299Z,1001
2017-10-02T22:46:21.740Z,1001
2017-10-02T22:47:24.165Z,1001
2017-10-02T22:48:26.605Z,1001.1
2017-10-02T22:49:29.041Z,1001.1
2017-10-02T22:50:31.476Z,1001.1
2017-10-02T22:51:33.905Z,1001
2017-10-02T22:52:36.337Z,1001
2017-10-02T22:53:38.770Z,1001
2017-10-02T22:54:41.193Z,1001.1
2017-10-02T22:55:43.636Z,1001
2017-10-02T22:56:46.404Z,1001
2017-10-02T22:57:48.840Z,1001
2017-10-02T22:58:51.261Z,1001
2017-10-02T22:59:53.690Z,1001
2017-10-02T23:00:56.812Z,1001
2017-10-02T23:01:59.243Z,1001.1
2017-10-02T23:03:01.671Z,1001
2017-10-02T23:04:04.449Z,1001
2017-10-02T23:05:06.885Z,1001.1
2017-10-02T23:06:09.638Z,1001.1
2017-10-02T23:07:12.411Z,1001.2
2017-10-02T23:08:15.174Z,1001.2
2017-10-02T23:09:17.605Z,1001.2
2017-10-02T23:10:20.032Z,1001.2
2017-10-02T23:11:22.456Z,1001.2
2017-10-02T23:12:24.886Z,1001.2
2017-10-02T23:13:27.325Z,1001.1
2017-10-02T23:14:29.758Z,1001.1
2017-10-02T23:15:32.186Z,1001.1
2017-10-02T23:16:34.960Z,1001.2
2017-10-02T23:17:37.394Z,1001.1
2017-10-02T23:18:39.814Z,1001.2
2017-10-02T23:19:42.244Z,1001.2
2017-10-02T23:20:44.687Z,1001.2
2017-10-02T23:21:47.112Z,1001.2
2017-10-02T23:22:49.535Z,1001.2
2017-10-02T23:23:51.961Z,1001.2
2017-10-02T23:24:54.396Z,1001.2
2017-10-02T23:25:57.193Z,1001.2
2017-10-02T23:26:59.628Z,1001.2
2017-10-02T23:28:02.046Z,1001.1
2017-10-02T23:29:04.473Z,1001.1
2017-10-02T23:30:06.914Z,1001.1
2017-10-02T23:31:09.340Z,1001
2017-10-02T23:32:11.772Z,1001.1
2017-10-02T23:33:14.200Z,1001.2
2017-10-02T23:34:16.980Z,1001.2
2017-10-02T23:35:19.410Z,1001.2
2017-10-02T23:36:21.841Z,1001.2
2017-10-02T23:37:24.260Z,1001.1
2017-10-02T23:38:26.682Z,1001.1
2017-10-02T23:39:29.111Z,1001.1
2017-10-02T23:40:31.542Z,1001.1
2017-10-02T23:41:33.977Z,1001.1
2017-10-02T23:42:36.402Z,1001.2
2017-10-02T23:43:38.839Z,1001.2
2017-10-02T23:44:41.278Z,1001.2
2017-10-02T23:45:43.707Z,1001.1
2017-10-02T23:46:46.141Z,1001.1
2017-10-02T23:47:48.905Z,1001.1
2017-10-02T23:48:51.329Z,1001.1
2017-10-02T23:49:53.762Z,1001.1
2017-10-02T23:50:56.194Z,1001.2
2017-10-02T23:51:58.615Z,1001.2
2017-10-02T23:53:01.043Z,1001.2
2017-10-02T23:54:03.490Z,1001.1
2017-10-02T23:55:06.255Z,1001.1
2017-10-02T23:56:08.698Z,1001
2017-10-02T23:57:11.472Z,1001.1
2017-10-02T23:58:13.898Z,1001.2
2017-10-02T23:59:16.331Z,1001.1
